Time;durP1;ratioP1;P1;durP2;ratioP2;P2;SDS_P1;SDS_P2;PMS_P1;PMS_P2;Temp;Humidity;BMP_temperature;BMP_pressure;BME280_temperature;BME280_humidity;BME280_pressure;Samples;Min_cycle;Max_cycle;Signal;HPM_P1;HPM_P2
2024/02/27 00:01:34;;;;;;;55.10;40.87;;;3.90;94.40;;;;;;5120155;27;20172;-84
2024/02/27 00:04:01;;;;;;;54.07;38.80;;;3.90;94.40;;;;;;5120463;27;20645;-84
2024/02/27 00:06:30;;;;;;;54.57;38.50;;;3.90;94.40;;;;;;5118609;28;20194;-85
2024/02/27 00:08:56;;;;;;;59.53;40.87;;;4.00;94.40;;;;;;5119984;27;20322;-84
2024/02/27 00:11:22;;;;;;;52.40;36.20;;;3.90;94.30;;;;;;5120036;27;20193;-88
2024/02/27 00:13:48;;;;;;;57.53;38.30;;;3.90;94.30;;;;;;5120181;27;20166;-84
2024/02/27 00:16:16;;;;;;;57.17;39.43;;;3.80;94.40;;;;;;5120182;27;20298;-84
2024/02/27 00:18:42;;;;;;;57.23;39.23;;;3.80;94.40;;;;;;5120025;27;20180;-84
2024/02/27 00:21:08;;;;;;;56.00;34.63;;;3.80;94.40;;;;;;5118866;28;20183;-85
2024/02/27 00:23:34;;;;;;;59.07;34.50;;;3.90;94.40;;;;;;5120011;27;20232;-84
2024/02/27 00:25:59;;;;;;;59.50;32.63;;;4.00;94.40;;;;;;5114965;28;20187;-84
2024/02/27 00:28:25;;;;;;;58.13;35.47;;;4.00;94.50;;;;;;5116591;28;20276;-84
2024/02/27 00:30:51;;;;;;;59.73;34.97;;;4.00;94.50;;;;;;5116895;27;20284;-84
2024/02/27 00:33:16;;;;;;;60.03;38.60;;;4.00;94.50;;;;;;5116771;28;20549;-84
2024/02/27 00:35:42;;;;;;;57.77;37.53;;;4.00;94.40;;;;;;5116122;28;20174;-85
2024/02/27 00:38:08;;;;;;;58.10;34.60;;;4.10;94.40;;;;;;5116393;28;20684;-84
2024/02/27 00:40:34;;;;;;;62.20;37.37;;;4.10;94.40;;;;;;5116590;28;20165;-84
2024/02/27 00:43:00;;;;;;;61.93;38.20;;;4.00;94.40;;;;;;5116338;28;20220;-85
2024/02/27 00:45:26;;;;;;;62.23;37.10;;;4.10;94.40;;;;;;5116781;28;20165;-85
2024/02/27 00:47:51;;;;;;;66.37;39.13;;;4.10;94.40;;;;;;5116586;28;20197;-84
2024/02/27 00:50:17;;;;;;;62.80;37.33;;;4.10;94.30;;;;;;5116246;28;20174;-85
2024/02/27 00:52:43;;;;;;;64.57;37.00;;;4.10;94.30;;;;;;5114867;28;20225;-84
2024/02/27 00:55:09;;;;;;;59.27;36.90;;;4.10;94.30;;;;;;5116330;28;20232;-85
2024/02/27 00:57:35;;;;;;;67.60;37.90;;;4.10;94.30;;;;;;5116025;28;20181;-84
2024/02/27 01:00:08;;;;;;;65.17;38.83;;;4.10;94.30;;;;;;5116125;28;20643;-85
2024/02/27 01:02:35;;;;;;;67.90;38.07;;;4.10;94.30;;;;;;5114839;28;20176;-85
2024/02/27 01:05:01;;;;;;;62.53;36.70;;;4.10;94.30;;;;;;5114672;28;20188;-85
2024/02/27 01:07:27;;;;;;;63.83;37.47;;;4.10;94.30;;;;;;5114818;28;20230;-84
2024/02/27 01:09:53;;;;;;;52.63;32.90;;;4.10;94.30;;;;;;5114829;28;20196;-84
2024/02/27 01:12:19;;;;;;;54.37;32.80;;;4.00;94.20;;;;;;5116811;28;20192;-84
2024/02/27 01:14:45;;;;;;;57.23;34.17;;;3.90;94.20;;;;;;5116308;28;20227;-84
2024/02/27 01:17:10;;;;;;;51.57;33.63;;;3.90;94.20;;;;;;5116332;28;20173;-85
2024/02/27 01:19:36;;;;;;;59.37;35.93;;;3.90;94.20;;;;;;5116081;27;20201;-85
2024/02/27 01:22:01;;;;;;;70.17;37.80;;;4.00;94.20;;;;;;5114929;28;20283;-85
2024/02/27 01:24:27;;;;;;;61.37;34.87;;;4.00;94.20;;;;;;5116053;28;20180;-85
2024/02/27 01:26:52;;;;;;;63.97;36.80;;;4.00;94.30;;;;;;5114869;28;20188;-85
2024/02/27 01:29:18;;;;;;;69.97;37.73;;;4.00;94.30;;;;;;5114811;28;20206;-85
2024/02/27 01:31:44;;;;;;;74.70;37.63;;;4.00;94.30;;;;;;5114691;28;20577;-85
2024/02/27 01:34:11;;;;;;;65.00;35.57;;;4.00;94.30;;;;;;5116229;28;20170;-85
2024/02/27 01:36:37;;;;;;;56.53;32.90;;;3.90;94.30;;;;;;5113919;28;20172;-85
2024/02/27 01:39:04;;;;;;;57.40;33.90;;;3.90;94.30;;;;;;5114461;28;20195;-84
2024/02/27 01:41:30;;;;;;;56.80;36.17;;;3.80;94.30;;;;;;5114871;28;20184;-85
2024/02/27 01:43:55;;;;;;;47.20;34.67;;;3.80;94.40;;;;;;5116187;28;20259;-84
2024/02/27 01:46:23;;;;;;;59.13;37.70;;;3.70;94.30;;;;;;5114626;28;20213;-84
2024/02/27 01:48:50;;;;;;;62.13;39.77;;;3.70;94.30;;;;;;5115644;28;20200;-85
2024/02/27 01:51:17;;;;;;;67.10;39.70;;;3.80;94.30;;;;;;5115506;28;20286;-84
2024/02/27 01:53:47;;;;;;;64.50;38.60;;;3.80;94.30;;;;;;5115769;28;20177;-84
2024/02/27 01:56:14;;;;;;;67.70;42.37;;;3.80;94.40;;;;;;5115739;28;20200;-85
2024/02/27 01:58:40;;;;;;;71.97;42.90;;;3.90;94.40;;;;;;5114156;28;20631;-85
2024/02/27 02:01:07;;;;;;;72.07;42.17;;;3.90;94.40;;;;;;5115747;28;20197;-85
2024/02/27 02:03:37;;;;;;;76.07;41.80;;;3.90;94.40;;;;;;5114130;28;20177;-85
2024/02/27 02:06:03;;;;;;;74.20;42.20;;;3.90;94.40;;;;;;5115247;28;20193;-84
2024/02/27 02:08:29;;;;;;;75.47;44.30;;;3.90;94.40;;;;;;5115301;28;20573;-85
2024/02/27 02:10:54;;;;;;;71.10;41.80;;;3.90;94.40;;;;;;5115425;28;20206;-85
2024/02/27 02:13:21;;;;;;;68.87;41.00;;;3.90;94.40;;;;;;5114214;28;20173;-85
2024/02/27 02:15:47;;;;;;;66.40;39.70;;;3.90;94.40;;;;;;5114373;28;20245;-85
2024/02/27 02:18:13;;;;;;;58.70;39.50;;;3.80;94.40;;;;;;5115104;28;20665;-85
2024/02/27 02:20:39;;;;;;;71.57;42.87;;;3.80;94.50;;;;;;5115155;28;20238;-85
2024/02/27 02:23:05;;;;;;;67.73;41.33;;;3.80;94.50;;;;;;5115033;28;20180;-85
2024/02/27 02:25:32;;;;;;;69.80;42.57;;;3.90;94.50;;;;;;5115148;28;20177;-84
2024/02/27 02:27:58;;;;;;;67.63;41.47;;;3.90;94.50;;;;;;5114991;28;20201;-85
2024/02/27 02:30:24;;;;;;;65.93;41.97;;;3.80;94.50;;;;;;5114842;28;20266;-85
2024/02/27 02:32:51;;;;;;;67.40;41.57;;;3.90;94.50;;;;;;5113542;28;20174;-85
2024/02/27 02:35:17;;;;;;;66.27;41.03;;;3.90;94.50;;;;;;5113865;28;20659;-85
2024/02/27 02:37:48;;;;;;;68.93;41.80;;;3.90;94.40;;;;;;5114610;28;20252;-85
2024/02/27 02:40:14;;;;;;;66.63;42.63;;;4.00;94.50;;;;;;5114909;28;20636;-85
2024/02/27 02:42:40;;;;;;;59.80;40.83;;;4.00;94.50;;;;;;5114807;28;20172;-85
2024/02/27 02:45:06;;;;;;;62.97;41.23;;;4.00;94.40;;;;;;5114799;28;20522;-85
2024/02/27 02:47:32;;;;;;;62.17;40.13;;;4.00;94.40;;;;;;5113947;27;20186;-84
2024/02/27 02:49:57;;;;;;;64.57;40.63;;;3.90;94.30;;;;;;5115000;28;20187;-85
2024/02/27 02:52:23;;;;;;;60.93;35.17;;;4.00;94.30;;;;;;5113330;28;20209;-85
2024/02/27 02:54:48;;;;;;;54.30;33.13;;;4.00;94.30;;;;;;5113419;28;20181;-85
2024/02/27 02:57:15;;;;;;;63.00;34.17;;;4.00;94.30;;;;;;5113484;28;20648;-85
2024/02/27 02:59:42;;;;;;;59.03;35.50;;;4.00;94.20;;;;;;5114959;28;20559;-85
2024/02/27 03:02:08;;;;;;;56.67;34.47;;;4.00;94.20;;;;;;5113318;28;20276;-85
2024/02/27 03:04:33;;;;;;;61.03;35.97;;;4.00;94.20;;;;;;5113249;28;20264;-84
2024/02/27 03:06:58;;;;;;;67.47;36.50;;;4.00;94.20;;;;;;5113374;28;20637;-85
2024/02/27 03:09:24;;;;;;;82.83;39.87;;;4.00;94.20;;;;;;5115351;28;20238;-85
2024/02/27 03:11:50;;;;;;;80.03;40.77;;;4.10;94.30;;;;;;5114505;28;20197;-85
2024/02/27 03:14:18;;;;;;;77.73;41.57;;;4.10;94.30;;;;;;5113337;28;20205;-85
2024/02/27 03:16:45;;;;;;;70.60;38.37;;;4.10;94.30;;;;;;5114847;28;20606;-85
2024/02/27 03:19:12;;;;;;;62.87;35.93;;;4.10;94.20;;;;;;5114880;28;20560;-85
2024/02/27 03:21:38;;;;;;;57.63;34.17;;;4.00;94.20;;;;;;5113335;28;20176;-85
2024/02/27 03:24:03;;;;;;;52.00;31.17;;;4.00;94.20;;;;;;5113360;28;20314;-85
2024/02/27 03:26:29;;;;;;;47.93;30.23;;;3.90;94.10;;;;;;5115081;28;20183;-85
2024/02/27 03:28:54;;;;;;;49.57;31.57;;;3.80;94.00;;;;;;5113531;28;20191;-84
2024/02/27 03:31:20;;;;;;;44.93;29.53;;;3.80;93.90;;;;;;5113298;28;20253;-85
2024/02/27 03:33:45;;;;;;;56.13;31.87;;;3.80;94.00;;;;;;5114702;28;20238;-88
2024/02/27 03:36:11;;;;;;;52.17;30.70;;;3.80;94.00;;;;;;5113110;28;20178;-85
2024/02/27 03:38:37;;;;;;;61.30;33.37;;;3.80;94.00;;;;;;5114256;28;20224;-84
2024/02/27 03:41:02;;;;;;;65.50;34.57;;;3.80;94.00;;;;;;5114073;28;20227;-85
2024/02/27 03:43:29;;;;;;;70.50;35.30;;;3.80;94.10;;;;;;5114378;28;20173;-85
2024/02/27 03:45:54;;;;;;;61.47;31.63;;;3.80;94.20;;;;;;5112878;28;20228;-85
2024/02/27 03:48:20;;;;;;;67.97;32.70;;;3.80;94.20;;;;;;5114392;28;20271;-85
2024/02/27 03:50:46;;;;;;;60.77;33.53;;;3.70;94.30;;;;;;5114548;28;20198;-85
2024/02/27 03:53:11;;;;;;;64.30;32.10;;;3.70;94.30;;;;;;5114974;28;20169;-85
2024/02/27 03:55:37;;;;;;;58.27;31.63;;;3.60;94.30;;;;;;5114577;28;20667;-85
2024/02/27 03:58:04;;;;;;;55.63;30.60;;;3.60;94.30;;;;;;5115188;28;20192;-85
2024/02/27 04:00:29;;;;;;;55.63;30.43;;;3.60;94.40;;;;;;5116101;28;20637;-85
2024/02/27 04:02:55;;;;;;;68.23;32.70;;;3.50;94.40;;;;;;5118620;28;20262;-84
2024/02/27 04:05:21;;;;;;;58.57;31.67;;;3.50;94.50;;;;;;5117125;28;20190;-85
2024/02/27 04:07:47;;;;;;;60.17;30.93;;;3.50;94.50;;;;;;5118538;28;20259;-85
2024/02/27 04:10:12;;;;;;;45.23;25.67;;;3.40;94.50;;;;;;5118579;28;20638;-84
2024/02/27 04:12:38;;;;;;;49.00;33.47;;;3.40;94.50;;;;;;5117398;28;20588;-84
2024/02/27 04:15:04;;;;;;;48.90;33.27;;;3.30;94.50;;;;;;5118721;28;20208;-85
2024/02/27 04:17:29;;;;;;;51.20;33.27;;;3.30;94.50;;;;;;5116971;28;20170;-85
2024/02/27 04:19:57;;;;;;;50.30;32.73;;;3.20;94.50;;;;;;5116907;28;20686;-84
2024/02/27 04:22:23;;;;;;;42.90;31.27;;;3.20;94.50;;;;;;5116932;28;20234;-85
2024/02/27 04:24:48;;;;;;;43.73;31.30;;;3.10;94.50;;;;;;5117870;28;20264;-85
2024/02/27 04:27:14;;;;;;;53.33;33.00;;;3.10;94.50;;;;;;5117450;28;20175;-85
2024/02/27 04:29:42;;;;;;;55.20;34.60;;;3.20;94.60;;;;;;5116234;28;20202;-84
2024/02/27 04:32:08;;;;;;;55.83;35.63;;;3.20;94.60;;;;;;5117436;28;20634;-85
2024/02/27 04:34:33;;;;;;;52.57;33.17;;;3.10;94.60;;;;;;5117610;28;20191;-85
2024/02/27 04:37:00;;;;;;;57.17;36.40;;;3.10;94.60;;;;;;5117436;28;20176;-85
2024/02/27 04:39:26;;;;;;;57.13;34.47;;;3.20;94.70;;;;;;5117265;28;20272;-85
2024/02/27 04:41:51;;;;;;;60.13;33.47;;;3.20;94.70;;;;;;5117578;28;20222;-85
2024/02/27 04:44:19;;;;;;;63.80;34.83;;;3.20;94.70;;;;;;5117649;28;20178;-85
2024/02/27 04:46:44;;;;;;;51.57;33.63;;;3.10;94.70;;;;;;5115927;28;20193;-85
2024/02/27 04:49:10;;;;;;;57.70;35.00;;;3.10;94.70;;;;;;5116954;28;20252;-85
2024/02/27 04:51:36;;;;;;;61.10;33.33;;;3.10;94.80;;;;;;5117510;28;20202;-84
2024/02/27 04:54:01;;;;;;;62.40;34.40;;;3.10;94.80;;;;;;5117562;28;20227;-85
2024/02/27 04:56:27;;;;;;;68.53;35.00;;;3.10;94.90;;;;;;5115889;28;20172;-85
2024/02/27 04:58:52;;;;;;;65.80;35.97;;;3.10;94.90;;;;;;5117195;28;20182;-85
2024/02/27 05:01:18;;;;;;;61.67;35.27;;;3.20;94.90;;;;;;5115677;28;20670;-84
2024/02/27 05:03:43;;;;;;;64.80;34.50;;;3.20;95.00;;;;;;5116618;28;20168;-85
2024/02/27 05:06:09;;;;;;;63.33;34.63;;;3.20;95.00;;;;;;5116607;28;20208;-85
2024/02/27 05:08:34;;;;;;;73.50;37.27;;;3.20;95.00;;;;;;5116895;28;20193;-85
2024/02/27 05:11:00;;;;;;;65.50;33.73;;;3.20;95.00;;;;;;5116412;27;20201;-85
2024/02/27 05:13:26;;;;;;;62.67;36.43;;;3.30;95.10;;;;;;5116722;28;20167;-85
2024/02/27 05:15:52;;;;;;;59.70;35.30;;;3.20;95.10;;;;;;5116437;28;20162;-85
2024/02/27 05:18:18;;;;;;;58.77;35.77;;;3.20;95.10;;;;;;5116356;28;20638;-85
2024/02/27 05:20:43;;;;;;;64.87;36.03;;;3.20;95.10;;;;;;5116742;28;20167;-85
2024/02/27 05:23:09;;;;;;;51.10;32.60;;;3.10;95.10;;;;;;5116458;28;20270;-85
2024/02/27 05:25:34;;;;;;;56.57;35.03;;;3.20;95.10;;;;;;5117072;28;20592;-84
2024/02/27 05:28:00;;;;;;;61.07;37.10;;;3.20;95.10;;;;;;5116555;28;20183;-85
2024/02/27 05:30:25;;;;;;;52.33;28.07;;;3.10;95.10;;;;;;5115624;28;20170;-85
2024/02/27 05:32:51;;;;;;;55.23;30.17;;;3.10;95.00;;;;;;5116500;27;20183;-84
2024/02/27 05:35:16;;;;;;;61.67;36.93;;;3.10;95.00;;;;;;5116223;28;20183;-85
2024/02/27 05:37:42;;;;;;;54.63;31.73;;;3.20;95.10;;;;;;5116028;27;20173;-84
2024/02/27 05:40:10;;;;;;;58.50;31.67;;;3.20;95.00;;;;;;5116119;28;20201;-84
2024/02/27 05:42:36;;;;;;;52.43;32.27;;;3.20;95.00;;;;;;5116102;28;20648;-84
2024/02/27 05:45:02;;;;;;;58.00;34.50;;;3.20;95.00;;;;;;5115095;28;20261;-87
2024/02/27 05:47:27;;;;;;;52.07;31.77;;;3.20;94.90;;;;;;5114538;28;20522;-85
2024/02/27 05:49:53;;;;;;;61.03;33.17;;;3.20;95.00;;;;;;5116078;28;20234;-84
2024/02/27 05:52:19;;;;;;;56.10;33.27;;;3.20;94.90;;;;;;5116149;28;20282;-85
2024/02/27 05:54:44;;;;;;;56.77;33.00;;;3.20;94.90;;;;;;5115853;27;20178;-84
2024/02/27 05:57:11;;;;;;;48.57;31.33;;;3.30;94.80;;;;;;5114787;28;20174;-84
2024/02/27 05:59:37;;;;;;;52.03;33.50;;;3.20;94.80;;;;;;5115913;28;20265;-84
2024/02/27 06:02:03;;;;;;;50.27;30.43;;;3.20;94.70;;;;;;5115801;28;20197;-84
2024/02/27 06:04:29;;;;;;;49.20;30.00;;;3.20;94.60;;;;;;5115824;28;20654;-84
2024/02/27 06:06:54;;;;;;;47.67;31.30;;;3.10;94.60;;;;;;5115806;28;20190;-85
2024/02/27 06:09:20;;;;;;;49.93;32.57;;;3.20;94.50;;;;;;5116110;28;20196;-84
2024/02/27 06:11:45;;;;;;;45.20;31.00;;;3.20;94.40;;;;;;5115672;28;20195;-85
2024/02/27 06:14:11;;;;;;;46.23;32.03;;;3.20;94.40;;;;;;5115550;28;20223;-85
2024/02/27 06:16:36;;;;;;;47.53;32.73;;;3.10;94.30;;;;;;5116026;28;20170;-85
2024/02/27 06:19:03;;;;;;;46.33;33.00;;;3.20;94.30;;;;;;5114201;28;20191;-85
2024/02/27 06:24:12;;;;;;;47.80;33.00;;;3.20;94.20;;;;;;5115366;28;20254;-87
2024/02/27 06:26:38;;;;;;;48.30;33.10;;;3.20;94.20;;;;;;5115273;28;20177;-85
2024/02/27 06:29:03;;;;;;;52.53;34.63;;;3.30;94.20;;;;;;5114113;28;20194;-85
2024/02/27 06:31:29;;;;;;;49.00;32.67;;;3.20;94.10;;;;;;5115637;28;20196;-85
2024/02/27 06:33:55;;;;;;;47.13;33.23;;;3.30;94.10;;;;;;5115606;28;20524;-85
2024/02/27 06:36:23;;;;;;;44.77;32.20;;;3.30;94.10;;;;;;5113866;28;20168;-85
2024/02/27 06:38:48;;;;;;;48.33;33.40;;;3.30;94.00;;;;;;5114023;28;20186;-87
2024/02/27 06:41:14;;;;;;;45.90;32.50;;;3.30;94.00;;;;;;5115521;28;20194;-85
2024/02/27 06:43:39;;;;;;;43.43;32.33;;;3.30;93.90;;;;;;5115412;28;20508;-85
2024/02/27 06:46:05;;;;;;;47.40;32.70;;;3.30;93.90;;;;;;5113405;28;20708;-85
2024/02/27 06:48:32;;;;;;;40.70;32.73;;;3.30;93.90;;;;;;5115369;28;20209;-85
2024/02/27 06:50:57;;;;;;;45.20;34.03;;;3.20;93.80;;;;;;5115441;28;20195;-85
2024/02/27 06:53:23;;;;;;;41.73;32.13;;;3.30;93.80;;;;;;5115144;28;20524;-85
2024/02/27 06:55:49;;;;;;;46.77;33.90;;;3.30;93.70;;;;;;5115296;28;20166;-85
2024/02/27 06:58:15;;;;;;;45.70;33.00;;;3.20;93.60;;;;;;5115212;28;20193;-87
2024/02/27 07:00:41;;;;;;;44.13;32.90;;;3.20;93.60;;;;;;5113679;28;20166;-85
2024/02/27 07:03:07;;;;;;;44.70;33.77;;;3.20;93.60;;;;;;5113402;28;20178;-84
2024/02/27 07:05:33;;;;;;;42.03;31.80;;;3.20;93.60;;;;;;5115140;28;20223;-86
2024/02/27 07:07:58;;;;;;;39.77;31.10;;;3.20;93.60;;;;;;5114720;28;20183;-86
2024/02/27 07:10:24;;;;;;;39.63;31.83;;;3.20;93.50;;;;;;5113456;28;20170;-84
2024/02/27 07:12:50;;;;;;;41.60;32.13;;;3.10;93.50;;;;;;5112791;28;20679;-84
2024/02/27 07:15:15;;;;;;;41.07;31.83;;;3.10;93.50;;;;;;5114390;28;20594;-84
2024/02/27 07:17:41;;;;;;;42.20;32.20;;;3.10;93.50;;;;;;5114203;28;20168;-84
2024/02/27 07:20:08;;;;;;;38.13;30.67;;;3.00;93.40;;;;;;5112726;28;20167;-84
2024/02/27 07:22:34;;;;;;;36.90;30.87;;;3.10;93.50;;;;;;5114174;28;20706;-85
2024/02/27 07:25:00;;;;;;;39.80;32.20;;;3.10;93.50;;;;;;5112740;28;20254;-84
2024/02/27 07:27:25;;;;;;;36.50;31.00;;;3.10;93.50;;;;;;5112960;28;20180;-85
2024/02/27 07:29:51;;;;;;;39.57;32.10;;;3.10;93.40;;;;;;5114001;28;20573;-88
2024/02/27 07:32:16;;;;;;;39.53;32.27;;;3.10;93.40;;;;;;5114414;28;20201;-84
2024/02/27 07:34:42;;;;;;;38.13;32.57;;;3.20;93.40;;;;;;5114838;28;20175;-84
2024/02/27 07:37:10;;;;;;;41.57;32.53;;;3.30;93.30;;;;;;5116736;28;20178;-85
2024/02/27 07:39:36;;;;;;;38.53;31.70;;;3.30;93.30;;;;;;5117736;28;20220;-85
2024/02/27 07:42:02;;;;;;;37.83;32.40;;;3.30;93.30;;;;;;5117746;28;20214;-85
2024/02/27 07:44:28;;;;;;;37.40;32.20;;;3.30;93.30;;;;;;5118049;28;20585;-85
2024/02/27 07:46:53;;;;;;;36.53;32.37;;;3.30;93.20;;;;;;5118640;28;20174;-84
2024/02/27 07:49:19;;;;;;;41.00;32.97;;;3.30;93.10;;;;;;5117032;28;20252;-85
2024/02/27 07:51:45;;;;;;;36.27;32.20;;;3.30;93.00;;;;;;5118154;28;20206;-85
2024/02/27 07:54:11;;;;;;;38.53;32.83;;;3.30;92.80;;;;;;5118522;28;20167;-88
2024/02/27 07:56:36;;;;;;;38.13;33.00;;;3.30;92.80;;;;;;5116496;28;20173;-88
2024/02/27 07:59:02;;;;;;;36.80;32.87;;;3.30;92.80;;;;;;5118111;28;20540;-83
2024/02/27 08:01:29;;;;;;;41.50;37.00;;;3.30;92.70;;;;;;5117679;28;20602;-85
2024/02/27 08:03:55;;;;;;;44.20;39.60;;;3.40;92.70;;;;;;5117866;28;20170;-85
2024/02/27 08:06:21;;;;;;;43.13;38.93;;;3.40;92.70;;;;;;5117869;28;20556;-85
2024/02/27 08:08:46;;;;;;;44.03;39.70;;;3.50;92.70;;;;;;5116353;28;20196;-85
2024/02/27 08:11:12;;;;;;;43.90;39.23;;;3.40;92.60;;;;;;5117414;28;20737;-84
2024/02/27 08:13:38;;;;;;;44.43;40.13;;;3.40;92.50;;;;;;5116080;28;20174;-86
2024/02/27 08:16:03;;;;;;;44.50;39.90;;;3.40;92.50;;;;;;5117441;28;20184;-84
2024/02/27 08:18:29;;;;;;;44.13;39.53;;;3.40;92.40;;;;;;5117492;28;20663;-85
2024/02/27 08:20:54;;;;;;;46.03;41.33;;;3.40;92.40;;;;;;5117525;28;20537;-85
2024/02/27 08:23:20;;;;;;;45.63;40.83;;;3.50;92.40;;;;;;5115858;28;20564;-83
2024/02/27 08:25:46;;;;;;;43.67;39.27;;;3.40;92.30;;;;;;5115786;28;20581;-84
2024/02/27 08:28:12;;;;;;;42.50;38.07;;;3.40;92.10;;;;;;5115906;28;20222;-84
2024/02/27 08:30:37;;;;;;;43.53;38.47;;;3.50;92.10;;;;;;5115851;28;20592;-87
2024/02/27 08:33:03;;;;;;;42.57;38.03;;;3.50;92.10;;;;;;5116392;28;20166;-84
2024/02/27 08:35:29;;;;;;;43.73;39.27;;;3.40;92.10;;;;;;5117413;28;20174;-84
2024/02/27 08:37:55;;;;;;;44.00;39.73;;;3.50;92.10;;;;;;5117532;27;20235;-84
2024/02/27 08:40:21;;;;;;;42.07;37.80;;;3.50;92.10;;;;;;5115694;28;20171;-84
2024/02/27 08:42:47;;;;;;;43.13;38.77;;;3.50;92.10;;;;;;5117073;28;20180;-84
2024/02/27 08:45:12;;;;;;;42.57;38.23;;;3.50;92.00;;;;;;5117071;28;20174;-85
2024/02/27 08:47:38;;;;;;;42.63;38.33;;;3.50;92.10;;;;;;5116713;28;20188;-86
2024/02/27 08:50:04;;;;;;;44.63;39.93;;;3.50;92.00;;;;;;5116637;28;20551;-86
2024/02/27 08:52:30;;;;;;;45.90;41.00;;;3.50;92.00;;;;;;5116417;28;20583;-86
2024/02/27 08:54:56;;;;;;;45.57;40.77;;;3.50;91.90;;;;;;5117432;28;20303;-86
2024/02/27 08:57:21;;;;;;;42.97;38.67;;;3.50;92.00;;;;;;5116137;28;20237;-86
2024/02/27 08:59:48;;;;;;;45.40;39.17;;;3.60;92.00;;;;;;5116260;28;20202;-86
2024/02/27 09:02:17;;;;;;;45.67;40.93;;;3.60;91.90;;;;;;5116127;28;20177;-86
2024/02/27 09:04:42;;;;;;;45.27;40.63;;;3.60;92.00;;;;;;5116892;28;20259;-86
2024/02/27 09:07:10;;;;;;;45.77;41.07;;;3.60;91.90;;;;;;5117444;27;20671;-86
2024/02/27 09:09:36;;;;;;;41.80;37.70;;;3.60;91.90;;;;;;5117613;28;20234;-86
2024/02/27 09:12:03;;;;;;;41.47;36.93;;;3.60;91.90;;;;;;5117071;28;20203;-85
2024/02/27 09:14:28;;;;;;;45.80;40.90;;;3.60;91.80;;;;;;5116990;28;20174;-86
2024/02/27 09:16:54;;;;;;;46.63;41.57;;;3.60;91.80;;;;;;5117391;28;20168;-87
2024/02/27 09:19:23;;;;;;;44.60;40.07;;;3.60;91.80;;;;;;5115825;28;20191;-86
2024/02/27 09:21:48;;;;;;;45.33;40.77;;;3.70;91.80;;;;;;5115601;28;20189;-86
2024/02/27 09:24:14;;;;;;;43.43;39.03;;;3.70;91.80;;;;;;5116973;28;20540;-86
2024/02/27 09:26:39;;;;;;;45.83;41.20;;;3.70;91.60;;;;;;5117084;28;20170;-87
2024/02/27 09:29:05;;;;;;;40.07;35.40;;;3.70;91.70;;;;;;5115162;28;20693;-86
2024/02/27 09:31:31;;;;;;;45.97;35.27;;;3.70;91.60;;;;;;5115583;28;20649;-86
2024/02/27 09:33:56;;;;;;;39.27;35.17;;;3.80;91.50;;;;;;5115279;28;20172;-86
2024/02/27 09:36:22;;;;;;;37.77;33.70;;;3.80;91.50;;;;;;5115302;28;20234;-86
2024/02/27 09:38:47;;;;;;;40.97;34.87;;;3.80;91.40;;;;;;5115575;28;20190;-86
2024/02/27 09:41:34;;;;;;;37.43;33.33;;;3.80;91.30;;;;;;5116951;28;20565;-86
2024/02/27 09:44:01;;;;;;;34.77;31.33;;;3.80;91.20;;;;;;5117377;28;20619;-85
2024/02/27 09:46:28;;;;;;;35.43;31.83;;;3.70;91.10;;;;;;5116364;28;20172;-85
2024/02/27 09:48:55;;;;;;;35.33;31.53;;;3.80;91.10;;;;;;5115088;28;20225;-86
2024/02/27 09:51:24;;;;;;;37.40;33.50;;;3.90;91.20;;;;;;5114633;28;20198;-86
2024/02/27 09:53:53;;;;;;;35.87;32.17;;;3.80;91.10;;;;;;5114906;28;20184;-87
2024/02/27 09:56:19;;;;;;;37.30;33.47;;;3.90;91.00;;;;;;5114847;28;20660;-86
2024/02/27 09:58:45;;;;;;;36.33;32.73;;;3.90;90.80;;;;;;5113775;28;20670;-87
2024/02/27 10:01:15;;;;;;;37.47;33.70;;;3.90;90.70;;;;;;5114710;28;20174;-86
2024/02/27 10:03:45;;;;;;;38.80;34.80;;;4.00;90.50;;;;;;5116343;28;20173;-86
2024/02/27 10:06:15;;;;;;;36.13;32.30;;;4.00;90.30;;;;;;5116137;28;20643;-86
2024/02/27 10:08:56;;;;;;;36.60;33.07;;;4.00;90.20;;;;;;5116049;28;20220;-86
2024/02/27 10:11:22;;;;;;;37.03;33.33;;;4.00;90.20;;;;;;5115917;28;20276;-86
2024/02/27 10:13:48;;;;;;;35.23;31.83;;;4.10;90.10;;;;;;5116004;28;20200;-86
2024/02/27 10:16:14;;;;;;;37.47;33.87;;;4.20;90.00;;;;;;5116082;28;20172;-86
2024/02/27 10:18:40;;;;;;;36.07;32.67;;;4.20;90.00;;;;;;5115177;28;20191;-86
2024/02/27 10:21:05;;;;;;;37.67;33.93;;;4.30;89.90;;;;;;5115530;28;20255;-88
2024/02/27 10:23:31;;;;;;;35.33;32.03;;;4.30;89.60;;;;;;5114249;28;20174;-87
2024/02/27 10:26:08;;;;;;;37.23;33.73;;;4.40;89.70;;;;;;5116177;28;20181;-86
2024/02/27 10:28:35;;;;;;;36.40;32.87;;;4.40;89.50;;;;;;5115286;28;20607;-87
2024/02/27 10:31:10;;;;;;;38.40;34.33;;;4.30;89.20;;;;;;5115228;28;20343;-87
2024/02/27 10:33:39;;;;;;;37.73;33.97;;;4.40;89.30;;;;;;5115750;28;20185;-86
2024/02/27 10:36:06;;;;;;;37.03;33.30;;;4.30;89.20;;;;;;5115344;28;20253;-87
2024/02/27 10:38:32;;;;;;;36.60;33.17;;;4.40;89.20;;;;;;5114721;28;20190;-86
2024/02/27 10:40:58;;;;;;;36.40;32.83;;;4.30;89.10;;;;;;5114229;28;20428;-87
2024/02/27 10:43:24;;;;;;;40.77;36.57;;;4.30;89.10;;;;;;5114050;28;20181;-87
2024/02/27 10:45:50;;;;;;;38.93;35.33;;;4.30;89.10;;;;;;5115520;28;20179;-87
2024/02/27 10:48:16;;;;;;;39.33;35.63;;;4.30;89.40;;;;;;5114760;28;20185;-87
2024/02/27 10:50:43;;;;;;;39.17;35.30;;;4.20;89.70;;;;;;5114528;28;20637;-87
2024/02/27 10:53:12;;;;;;;37.53;33.93;;;4.30;90.10;;;;;;5114828;28;20181;-87
2024/02/27 10:55:38;;;;;;;38.93;35.03;;;4.30;90.20;;;;;;5113273;28;20272;-87
2024/02/27 10:58:04;;;;;;;37.63;34.17;;;4.30;90.40;;;;;;5115064;28;20189;-87
2024/02/27 11:00:31;;;;;;;36.77;33.33;;;4.50;90.30;;;;;;5113818;28;20193;-87
2024/02/27 11:02:57;;;;;;;37.77;34.30;;;4.50;90.20;;;;;;5113640;28;20372;-87
2024/02/27 11:05:26;;;;;;;37.40;33.93;;;4.60;89.20;;;;;;5114650;28;20217;-86
2024/02/27 11:07:55;;;;;;;38.63;35.17;;;4.60;88.50;;;;;;5113732;28;20202;-87
2024/02/27 11:10:22;;;;;;;36.03;32.77;;;4.70;88.00;;;;;;5113279;28;20565;-87
2024/02/27 11:12:51;;;;;;;35.60;32.50;;;4.70;87.80;;;;;;5115376;28;20258;-87
2024/02/27 11:15:18;;;;;;;36.10;32.40;;;4.60;87.50;;;;;;5114970;28;20169;-87
2024/02/27 11:17:49;;;;;;;36.33;33.13;;;4.60;87.60;;;;;;5114217;28;20178;-87
2024/02/27 11:20:15;;;;;;;38.10;34.67;;;4.50;87.50;;;;;;5113640;28;20169;-87
2024/02/27 11:22:43;;;;;;;38.77;35.17;;;4.60;87.60;;;;;;5113344;28;20181;-89
2024/02/27 11:25:12;;;;;;;37.33;33.73;;;4.70;87.90;;;;;;5115203;28;20182;-89
2024/02/27 11:27:38;;;;;;;35.70;32.53;;;4.80;88.20;;;;;;5113199;28;20177;-89
2024/02/27 11:30:06;;;;;;;34.03;31.13;;;4.90;87.70;;;;;;5113376;28;20201;-89
2024/02/27 11:32:34;;;;;;;34.63;31.73;;;4.80;86.90;;;;;;5113943;28;20679;-89
2024/02/27 11:35:01;;;;;;;33.47;30.43;;;4.80;86.90;;;;;;5113319;28;20174;-88
2024/02/27 11:37:27;;;;;;;34.03;31.07;;;4.80;86.90;;;;;;5113123;28;20589;-89
2024/02/27 11:39:53;;;;;;;33.47;30.60;;;4.80;87.00;;;;;;5113174;28;20190;-90
2024/02/27 11:42:39;;;;;;;35.20;31.80;;;4.90;86.80;;;;;;5112896;28;20184;-90
2024/02/27 11:45:24;;;;;;;34.13;31.17;;;5.00;86.40;;;;;;5113067;28;20195;-89
2024/02/27 11:47:53;;;;;;;35.13;32.03;;;5.00;86.20;;;;;;5116601;28;20200;-90
2024/02/27 11:50:36;;;;;;;33.30;30.30;;;4.90;86.30;;;;;;5115262;28;20199;-89
2024/02/27 11:53:20;;;;;;;33.20;30.07;;;5.00;86.50;;;;;;5115725;28;20208;-89
2024/02/27 11:55:50;;;;;;;31.77;28.97;;;5.30;86.30;;;;;;5113933;28;20540;-89
2024/02/27 11:58:17;;;;;;;34.53;31.47;;;5.30;85.50;;;;;;5114093;28;20185;-90
2024/02/27 12:00:44;;;;;;;35.30;32.07;;;5.50;85.10;;;;;;5114490;28;20240;-89
2024/02/27 12:03:10;;;;;;;33.80;30.97;;;5.40;85.10;;;;;;5113661;28;20174;-89
2024/02/27 12:05:36;;;;;;;35.00;31.83;;;5.20;85.50;;;;;;5114690;28;20196;-89
2024/02/27 12:08:02;;;;;;;34.20;31.20;;;5.10;85.70;;;;;;5112696;28;20229;-90
2024/02/27 12:10:28;;;;;;;34.63;31.20;;;5.20;86.10;;;;;;5113319;28;20174;-90
2024/02/27 12:12:54;;;;;;;34.63;31.43;;;5.30;85.60;;;;;;5113965;28;20221;-90
2024/02/27 12:15:20;;;;;;;33.97;31.07;;;5.20;85.20;;;;;;5113574;28;20657;-89
2024/02/27 12:17:46;;;;;;;33.23;30.40;;;5.20;85.10;;;;;;5114328;28;20170;-90
2024/02/27 12:20:13;;;;;;;34.77;31.70;;;5.50;85.40;;;;;;5114115;28;20174;-90
2024/02/27 12:22:48;;;;;;;33.90;31.00;;;5.60;84.60;;;;;;5118458;28;20186;-90
2024/02/27 12:25:16;;;;;;;35.40;32.30;;;5.40;84.30;;;;;;5118902;28;20178;-90
2024/02/27 12:27:46;;;;;;;34.43;31.63;;;5.40;84.30;;;;;;5116107;28;20178;-90
2024/02/27 12:30:12;;;;;;;34.17;31.10;;;5.50;84.60;;;;;;5119075;28;20269;-90
2024/02/27 12:32:44;;;;;;;32.07;29.27;;;5.50;84.80;;;;;;5117653;28;20235;-90
2024/02/27 12:35:11;;;;;;;34.13;31.10;;;5.70;85.30;;;;;;5117216;28;20250;-90